»·PEaware :: N15JG KSNA-KSMO

N15JG :: KSNA-KSMO

FLIGHT INFORMATION

Flight Status: Arrived
Operator: Privately registered:
United States
More flights under this callsign
Pilot: Anonymous 11047 (11047)
Aircraft: CESSNA 172 SKYHAWK
(C172)
More flights by this aircraft type
Origin: KSNA John Wayne-Orange Co
United States
Destination: KSMO Santa Monica Mun
United States
More flights between these airports :: More routes between these airports
Route: SLI V8 POXKU V363 BAYJY V186 DARTS
File this flight plan on PilotEdge
Remarks: I-4
Altitude:
(Current/Filed)
6,000ft
Speed:
(Current/Filed)
110kts
Departed: 05-Apr-17 11:05 AM
Arrived: 05-Apr-17 11:51 AM
Distance/Time
Traveled:
35nm/0:45
Distance/Time
To Go:
Arrived

Flight Plot

Page will automatically refresh every two minutes.


Map Options




Map Legend


Flown Route
Filed Route
Departure Airport
Arrival Airport
Navaid (VOR, NDB)
Fix

Horizontal Profiles

Position Reports

Time Latitude Longitude Heading Altitude Ground
Speed
05-Apr-17 10:42 33.676908 -117.872073 119 60ft 0kts
05-Apr-17 10:43 33.676908 -117.872073 119 60ft 0kts
05-Apr-17 10:44 33.676908 -117.872073 119 60ft 0kts
05-Apr-17 10:45 33.676908 -117.872073 119 60ft 0kts
05-Apr-17 10:46 33.676908 -117.872073 119 60ft 0kts
05-Apr-17 10:47 33.676908 -117.872073 119 60ft 0kts
05-Apr-17 10:48 33.676908 -117.872073 119 60ft 0kts
05-Apr-17 10:49 33.676908 -117.872073 119 60ft 0kts
05-Apr-17 10:50 33.676908 -117.872073 119 60ft 0kts
05-Apr-17 10:51 33.676908 -117.872073 119 60ft 0kts
05-Apr-17 10:52 33.676908 -117.872073 119 60ft 0kts
05-Apr-17 10:53 33.676908 -117.872073 119 60ft 0kts
05-Apr-17 10:54 33.676908 -117.872073 119 60ft 0kts
05-Apr-17 10:55 33.676908 -117.872073 119 60ft 0kts
05-Apr-17 10:56 33.676908 -117.872073 119 60ft 0kts
05-Apr-17 10:57 33.676908 -117.872073 119 60ft 0kts
05-Apr-17 10:58 33.676734 -117.871669 115 60ft 8kts
05-Apr-17 10:59 33.677407 -117.869226 27 60ft 11kts
05-Apr-17 11:00 33.680674 -117.867327 28 60ft 14kts
05-Apr-17 11:01 33.681266 -117.866625 100 60ft 0kts
05-Apr-17 11:02 33.681266 -117.866625 100 60ft 0kts
05-Apr-17 11:03 33.681266 -117.866625 100 60ft 0kts
05-Apr-17 11:04 33.681266 -117.866625 100 60ft 0kts
05-Apr-17 11:05 33.681266 -117.866625 100 60ft 0kts
05-Apr-17 11:06 33.677743 -117.867542 207 60ft 70kts
05-Apr-17 11:07 33.660640 -117.884926 232 986ft 84kts
05-Apr-17 11:08 33.646238 -117.907007 231 1876ft 86kts
05-Apr-17 11:09 33.631873 -117.929367 231 2744ft 86kts
05-Apr-17 11:10 33.614985 -117.955294 259 3384ft 108kts
05-Apr-17 11:11 33.633922 -117.961371 34 3991ft 89kts
05-Apr-17 11:12 33.657136 -117.947768 32 4642ft 102kts
05-Apr-17 11:13 33.680954 -117.931680 33 5380ft 104kts
05-Apr-17 11:14 33.704386 -117.915186 32 5990ft 109kts
05-Apr-17 11:15 33.729433 -117.897335 32 6002ft 130kts
05-Apr-17 11:16 33.755676 -117.879048 32 5973ft 126kts
05-Apr-17 11:17 33.780850 -117.862535 30 5993ft 125kts
05-Apr-17 11:18 33.806111 -117.844997 32 6025ft 130kts
05-Apr-17 11:19 33.832970 -117.826137 30 6043ft 134kts
05-Apr-17 11:20 33.854422 -117.799028 73 5982ft 128kts
05-Apr-17 11:21 33.871876 -117.769584 22 5983ft 134kts
05-Apr-17 11:22 33.903642 -117.768229 354 5997ft 131kts
05-Apr-17 11:23 33.934426 -117.776236 318 6042ft 128kts
05-Apr-17 11:24 33.967562 -117.784559 2 5866ft 127kts
05-Apr-17 11:25 33.999671 -117.784642 350 5903ft 126kts
05-Apr-17 11:26 34.030787 -117.787294 348 6025ft 122kts
05-Apr-17 11:27 34.056071 -117.805037 280 6114ft 109kts
05-Apr-17 11:28 34.054633 -117.840783 242 5977ft 107kts
05-Apr-17 11:29 34.040202 -117.870960 224 6011ft 103kts
05-Apr-17 11:30 34.041605 -117.904172 295 5960ft 119kts
05-Apr-17 11:31 34.053982 -117.938663 274 6031ft 112kts
05-Apr-17 11:32 34.059343 -117.974462 275 6084ft 114kts
05-Apr-17 11:33 34.068472 -118.010690 279 6069ft 116kts
05-Apr-17 11:34 34.083430 -118.045333 294 6054ft 121kts
05-Apr-17 11:35 34.099598 -118.079074 284 6064ft 118kts
05-Apr-17 11:36 34.106565 -118.105726 276 6037ft 114kts
05-Apr-17 11:37 34.112868 -118.135139 286 5930ft 124kts
05-Apr-17 11:38 34.125300 -118.161357 287 5984ft 114kts
05-Apr-17 11:39 34.134541 -118.188886 279 6011ft 113kts
05-Apr-17 11:40 34.140476 -118.217223 271 6043ft 111kts
05-Apr-17 11:41 34.143376 -118.246564 278 5962ft 119kts
05-Apr-17 11:42 34.152959 -118.274214 271 5817ft 107kts
05-Apr-17 11:43 34.136130 -118.287868 184 4754ft 115kts
05-Apr-17 11:44 34.114955 -118.305634 237 3287ft 125kts
05-Apr-17 11:45 34.104087 -118.330769 241 2751ft 99kts
05-Apr-17 11:46 34.088951 -118.349336 221 2321ft 102kts
05-Apr-17 11:47 34.071965 -118.367063 229 2166ft 103kts
05-Apr-17 11:48 34.057080 -118.387985 228 1792ft 104kts
05-Apr-17 11:49 34.044278 -118.410086 247 1405ft 100kts
05-Apr-17 11:50 34.032870 -118.431390 224 839ft 94kts
05-Apr-17 11:51 34.021044 -118.445055 228 249ft 63kts
05-Apr-17 11:52 34.015844 -118.451347 219 137ft 12kts
05-Apr-17 11:53 34.014545 -118.451557 100 133ft 6kts
05-Apr-17 11:54 34.015859 -118.449408 71 142ft 1kts
05-Apr-17 11:55 34.016112 -118.449364 355 143ft 0kts
05-Apr-17 11:56 34.016112 -118.449364 355 143ft 0kts
05-Apr-17 11:57 34.016112 -118.449364 355 143ft 0kts

Navigation Log

Ident Type
1. KSNA Airport
2. SLI Navaid
3. AHEIM Fix
4. OLLIE Fix
5. POXKU Fix
6. POXKU Fix
7. PRADO Fix
8. BAYJY Fix
9. BAYJY Fix
10. ADAMM Fix
11. PIRRO Fix
12. ITSME Fix
13. ELMOO Fix
14. PURMS Fix
15. DARTS Fix
16. KSMO Airport